Latest Weather Observations for Nerriga

IDN60801

Issued at 1:03 pm EST Monday 30 May 2016 (issued every 30 minutes, with the page automatically refreshed every 10 minutes)

About weather observations | Map of weather stations | Latest weather observations for NSW | Other Formats
Station Details ID: 069128 Name: NERRIGA AWS Lat: -35.11 Lon: 150.08 Height: 622.0 m
Data from the previous 72 hours. | See also: Recent months at Nerriga
Date/Time
EST
Temp
°C
App
Temp
°C
Dew
Point
Rel
Hum
%
Delta-T
°C
Wind Press
QNH
hPa
Press
MSL
hPa
Rain
since 9 am
mm
Dir
 
Spd
km/h
Gust
km/h
Spd
kts
Gust
kts
30/01:00pm 12.4 9.5 4.4 58 3.7 SE 9 19 5 10 1024.4 1024.5 0.0
30/12:30pm 11.3 8.9 4.1 61 3.3 WNW 6 9 3 5 1024.7 1024.8 0.0
30/12:00pm 9.4 7.4 4.2 70 2.4 WNW 4 7 2 4 1025.0 1025.1 0.0
30/11:30am 6.4 4.2 3.4 81 1.3 WNW 4 6 2 3 1025.5 1025.5 0.0
30/11:00am 4.1 2.4 4.1 100 0.0 WNW 2 4 1 2 1025.9 1026.0 0.0
30/10:30am 2.1 0.1 2.1 100 0.0 WNW 2 6 1 3 1026.2 1026.3 0.0
30/10:00am 1.3 -0.9 1.3 100 0.0 WNW 2 6 1 3 1026.1 1026.2 0.0
30/09:30am 0.5 -2.2 0.5 100 0.0 WNW 4 4 2 2 1026.0 1026.1 0.0
30/09:00am -0.4 -3.2 -0.4 100 0.0 WNW 4 6 2 3 1025.7 1025.8 0.2
30/08:30am -0.8 -2.9 -0.9 99 0.0 CALM 0 0 0 0 1025.3 1025.4 0.2
30/08:00am -1.1 -3.3 -1.2 99 0.0 CALM 0 0 0 0 1025.0 1025.1 0.0
30/07:30am -1.2 -3.4 -1.3 99 0.0 CALM 0 0 0 0 1024.7 1024.8 0.0
30/07:00am -0.9 -3.0 -1.0 99 0.0 CALM 0 0 0 0 1024.4 1024.5 0.0
30/06:30am -0.6 -2.7 -0.7 99 0.0 CALM 0 0 0 0 1024.0 1024.0 0.0
30/06:00am -0.4 -2.5 -0.5 99 0.0 CALM 0 2 0 1 1023.6 1023.7 0.0
30/05:30am -0.1 -2.1 -0.1 100 0.0 CALM 0 0 0 0 1023.3 1023.4 0.0
30/05:00am 0.2 -2.5 0.2 100 0.0 WNW 4 6 2 3 1023.1 1023.2 0.0
30/04:30am 0.5 -1.8 0.5 100 0.0 WNW 2 4 1 2 1022.9 1023.0 0.0
30/04:00am 0.6 -1.7 0.6 100 0.0 WNW 2 6 1 3 1022.7 1022.7 0.0
30/03:30am 0.4 -2.7 0.4 100 0.0 WNW 6 7 3 4 1022.5 1022.5 0.0
30/03:00am -1.5 -4.5 -1.8 98 0.0 WNW 4 7 2 4 1022.4 1022.4 0.0
30/02:30am -1.3 -3.9 -1.6 98 0.0 WNW 2 4 1 2 1022.5 1022.5 0.0
30/02:00am -1.4 -4.4 -2.0 96 0.1 WNW 4 6 2 3 1022.4 1022.4 0.0
30/01:30am 0.1 -2.3 -0.2 98 0.1 WNW 2 4 1 2 1022.2 1022.2 0.0
30/01:00am 0.1 -2.3 -0.2 98 0.1 WNW 2 4 1 2 1021.9 1022.0 0.0
30/12:30am -0.3 -2.4 -0.7 97 0.1 CALM 0 0 0 0 1021.8 1021.9 0.0
30/12:00am -0.1 -2.2 -0.7 96 0.2 CALM 0 0 0 0 1021.8 1021.9 0.0
 
Date/Time
EST
Temp
°C
App
Temp
°C
Dew
Point
Rel
Hum
%
Delta-T
°C
Wind Press
QNH
hPa
Press
MSL
hPa
Rain
since 9 am
mm
Dir
 
Spd
km/h
Gust
km/h
Spd
kts
Gust
kts
29/11:30pm 0.5 -1.5 -0.2 95 0.3 CALM 0 0 0 0 1021.8 1021.9 0.0
29/11:00pm 0.6 -2.2 -0.3 94 0.3 WNW 4 6 2 3 1021.8 1021.9 0.0
29/10:30pm 0.7 -2.5 -0.4 92 0.4 WNW 6 6 3 3 1021.9 1022.0 0.0
29/10:00pm 1.3 -1.4 0.0 91 0.5 WNW 4 4 2 2 1021.6 1021.7 0.0
29/09:30pm 2.5 -0.7 0.7 88 0.7 WNW 7 7 4 4 1021.4 1021.4 0.0
29/09:00pm 2.8 -0.2 0.7 86 0.8 WNW 6 7 3 4 1021.2 1021.2 0.0
29/08:30pm 3.3 0.1 0.9 84 1.0 WNW 7 11 4 6 1021.1 1021.1 0.0
29/08:00pm 3.6 -0.3 1.2 84 1.0 WNW 11 13 6 7 1020.8 1020.8 0.0
29/07:30pm 3.9 0.7 0.9 81 1.2 WNW 7 11 4 6 1020.1 1020.1 0.0
29/07:00pm 4.6 0.7 1.1 78 1.4 WNW 11 13 6 7 1019.7 1019.7 0.0
29/06:30pm 5.6 1.7 1.2 73 1.8 WNW 11 15 6 8 1019.5 1019.5 0.0
29/06:00pm 6.5 3.0 1.4 70 2.1 WNW 9 15 5 8 1019.1 1019.1 0.0
29/05:30pm 7.0 3.1 1.1 66 2.5 WNW 11 15 6 8 1018.5 1018.5 0.0
29/05:00pm 8.2 3.6 1.6 63 2.8 WNW 15 20 8 11 1018.1 1018.1 0.0
29/04:30pm 9.8 5.6 1.5 56 3.6 W 13 17 7 9 1017.7 1017.7 0.0
29/04:00pm 11.0 6.0 1.5 52 4.1 W 17 24 9 13 1017.4 1017.3 0.0
29/03:30pm 11.6 6.6 1.5 50 4.4 W 17 24 9 13 1017.1 1017.0 0.0
29/03:00pm 11.4 5.5 1.4 50 4.4 W 22 30 12 16 1016.8 1016.8 0.0
29/02:30pm 11.9 5.6 1.8 50 4.5 WNW 24 33 13 18 1016.5 1016.5 0.0
29/02:00pm 11.9 6.1 2.1 51 4.4 WNW 22 28 12 15 1016.4 1016.4 0.0
29/01:30pm 11.8 7.4 2.8 54 4.1 WNW 15 22 8 12 1016.3 1016.3 0.0
29/01:00pm 11.5 6.1 2.3 53 4.1 W 20 26 11 14 1016.3 1016.3 0.0
29/12:30pm 11.0 5.8 2.3 55 3.9 W 19 26 10 14 1016.3 1016.3 0.0
29/12:00pm 11.1 5.9 2.7 56 3.8 W 19 28 10 15 1016.5 1016.5 0.0
29/11:30am 10.9 5.8 3.2 59 3.5 WNW 19 28 10 15 1016.6 1016.6 0.0
29/11:00am 10.0 5.7 3.3 63 3.0 WNW 15 22 8 12 1017.0 1016.9 0.0
29/10:30am 8.5 4.7 3.8 72 2.1 WNW 13 24 7 13 1017.2 1017.1 0.0
29/10:00am 7.1 3.6 3.7 79 1.5 WNW 11 19 6 10 1017.4 1017.3 0.0
29/09:30am 5.3 2.7 4.3 93 0.4 WNW 7 11 4 6 1017.2 1017.1 0.0
29/09:00am 3.4 0.8 3.3 99 0.0 WNW 6 7 3 4 1017.2 1017.1 1.6
29/08:30am 2.9 0.2 2.9 100 0.0 WNW 6 9 3 5 1017.0 1016.9 1.6
29/08:00am 1.7 -1.7 1.7 100 0.0 WNW 9 17 5 9 1016.7 1016.7 1.6
29/07:30am 1.3 -1.8 1.3 100 0.0 WNW 7 9 4 5 1016.3 1016.3 1.4
29/07:00am 1.1 -2.0 1.1 100 0.0 WNW 7 9 4 5 1015.9 1015.8 1.4
29/06:30am 0.3 -2.8 0.3 100 0.0 WNW 6 6 3 3 1015.5 1015.4 1.4
29/06:00am 0.6 -1.3 0.5 99 0.0 CALM 0 4 0 2 1015.3 1015.2 1.4
29/05:30am 0.7 -1.6 0.6 99 0.0 WNW 2 4 1 2 1015.0 1015.0 1.4
29/05:00am 0.8 -1.1 0.7 99 0.0 CALM 0 0 0 0 1014.8 1014.8 1.4
29/04:30am 0.8 -1.1 0.7 99 0.0 CALM 0 0 0 0 1014.7 1014.7 1.4
29/04:00am 1.9 0.2 1.8 99 0.0 CALM 0 0 0 0 1014.3 1014.2 1.4
29/03:30am 0.5 -1.5 0.2 98 0.1 CALM 0 0 0 0 1014.2 1014.1 1.4
29/03:00am 2.1 0.4 2.0 99 0.0 CALM 0 0 0 0 1014.1 1014.0 1.4
29/02:30am 2.6 0.3 2.5 99 0.0 WNW 4 6 2 3 1014.1 1014.0 1.4
29/02:00am 2.4 -0.4 2.1 98 0.1 WNW 6 7 3 4 1013.9 1013.8 1.4
29/01:30am 2.7 0.3 2.3 97 0.2 WNW 4 7 2 4 1013.6 1013.5 1.4
29/01:00am 3.4 1.1 3.0 97 0.2 WNW 4 6 2 3 1013.3 1013.3 1.4
29/12:30am 3.6 1.0 3.0 96 0.3 WNW 6 7 3 4 1013.1 1013.0 1.4
29/12:00am 3.1 1.1 2.1 93 0.4 WNW 2 4 1 2 1013.0 1012.9 1.4
 
Date/Time
EST
Temp
°C
App
Temp
°C
Dew
Point
Rel
Hum
%
Delta-T
°C
Wind Press
QNH
hPa
Press
MSL
hPa
Rain
since 9 am
mm
Dir
 
Spd
km/h
Gust
km/h
Spd
kts
Gust
kts
28/11:30pm 4.3 1.7 3.0 91 0.6 WNW 6 11 3 6 1012.9 1012.8 1.4
28/11:00pm 4.8 0.5 3.3 90 0.6 WNW 15 24 8 13 1012.7 1012.6 1.4
28/10:30pm 4.2 1.4 3.2 93 0.4 W 7 13 4 7 1012.6 1012.5 1.4
28/10:00pm 4.4 1.8 3.2 92 0.5 W 6 9 3 5 1012.4 1012.3 1.4
28/09:30pm 4.9 1.8 3.7 92 0.5 W 9 13 5 7 1012.2 1012.1 1.4
28/09:00pm 5.1 1.7 3.8 91 0.6 W 11 15 6 8 1012.2 1012.1 1.4
28/08:30pm 5.6 2.6 3.9 89 0.7 W 9 15 5 8 1012.1 1012.0 1.4
28/08:00pm 5.6 1.8 3.9 89 0.7 W 13 17 7 9 1011.5 1011.4 1.4
28/07:30pm 6.3 1.8 4.3 87 0.9 W 17 22 9 12 1011.2 1011.1 1.4
28/07:00pm 6.8 1.7 4.3 84 1.1 W 20 28 11 15 1010.8 1010.7 1.4
28/06:30pm 7.0 2.9 4.5 84 1.1 W 15 20 8 11 1010.3 1010.1 1.4
28/06:00pm 7.4 3.7 4.7 83 1.2 W 13 19 7 10 1009.7 1009.6 1.4
28/05:30pm 7.7 3.7 4.8 82 1.3 W 15 20 8 11 1009.0 1008.8 1.4
28/05:00pm 8.2 5.0 5.0 80 1.5 W 11 19 6 10 1008.5 1008.3 1.4
28/04:30pm 8.7 4.3 4.7 76 1.8 W 17 24 9 13 1008.0 1007.9 1.4
28/04:00pm 9.1 5.0 4.3 72 2.2 W 15 19 8 10 1007.7 1007.5 1.4
28/03:30pm 9.8 4.8 4.6 70 2.4 WNW 20 28 11 15 1007.1 1006.9 1.4
28/03:00pm 10.7 5.9 4.4 65 2.9 WNW 19 30 10 16 1006.5 1006.4 1.4
28/02:30pm 10.3 7.1 5.1 70 2.4 W 11 15 6 8 1006.1 1005.9 1.4
28/02:00pm 9.5 5.3 5.5 76 1.9 WNW 17 22 9 12 1006.0 1005.8 1.4
28/01:30pm 8.5 5.6 6.5 87 1.0 W 11 19 6 10 1005.9 1005.7 1.4
28/01:00pm 8.2 5.4 7.1 93 0.5 WNW 11 15 6 8 1006.0 1005.8 1.4
28/12:30pm 6.6 3.2 5.9 95 0.3 NW 13 19 7 10 1006.0 1005.8 1.4
28/12:00pm 6.6 2.8 5.6 93 0.5 WNW 15 20 8 11 1006.1 1005.9 1.0
28/11:30am 7.0 2.8 5.9 93 0.5 WNW 17 22 9 12 1006.3 1006.1 0.8
28/11:00am 7.2 4.9 5.5 89 0.8 WSW 7 9 4 5 1006.5 1006.4 0.2
28/10:30am 7.3 5.1 5.3 87 0.9 WSW 6 7 3 4 1006.6 1006.5 0.0
28/10:00am 6.5 4.1 4.5 87 0.9 WSW 6 9 3 5 1006.6 1006.5 0.0
28/09:30am 6.3 3.8 4.6 89 0.8 WSW 7 9 4 5 1006.6 1006.5 0.0
28/09:00am 6.0 4.4 4.5 90 0.7 WSW 2 4 1 2 1006.6 1006.5 0.0
28/08:30am 5.0 3.7 4.1 94 0.4 CALM 0 0 0 0 1006.8 1006.6 0.0
28/08:00am 4.6 2.8 3.7 94 0.4 WSW 2 4 1 2 1006.8 1006.6 0.0
28/07:30am 3.1 1.1 2.2 94 0.4 WSW 2 6 1 3 1006.8 1006.6 0.0
28/07:00am 3.4 1.8 2.5 94 0.4 CALM 0 0 0 0 1007.0 1006.8 0.0
28/06:30am 2.4 0.3 1.8 96 0.2 WSW 2 2 1 1 1006.9 1006.7 0.0
28/06:00am 1.8 -1.1 1.2 96 0.2 WSW 6 7 3 4 1006.5 1006.4 0.0
28/05:30am 0.7 -2.4 0.3 97 0.2 WSW 6 7 3 4 1006.6 1006.5 0.0
28/05:00am 1.0 -2.0 0.6 97 0.2 WSW 6 7 3 4 1006.5 1006.4 0.0
28/04:30am 2.0 0.2 1.3 95 0.3 CALM 0 0 0 0 1006.6 1006.5 0.0
28/04:00am 1.5 -0.8 0.3 92 0.5 WSW 2 6 1 3 1006.6 1006.5 0.0
28/03:30am 2.5 -0.5 0.6 87 0.7 WSW 6 9 3 5 1006.5 1006.4 0.0
28/03:00am 1.6 -1.2 -0.3 87 0.7 WSW 4 6 2 3 1006.6 1006.5 0.0
28/02:30am 4.3 0.8 1.5 82 1.1 WSW 9 17 5 9 1007.0 1006.8 0.0
28/02:00am 3.1 -1.2 1.2 87 0.8 WNW 13 17 7 9 1007.2 1007.0 0.0
28/01:30am 2.6 -1.0 0.5 86 0.8 W 9 15 5 8 1007.5 1007.3 0.0
28/01:00am 3.9 0.8 1.4 84 1.0 W 7 9 4 5 1007.5 1007.3 0.0
28/12:30am 4.5 1.6 1.2 79 1.3 W 6 11 3 6 1007.8 1007.7 0.0
28/12:00am 4.8 1.6 0.8 75 1.6 W 7 11 4 6 1007.9 1007.8 0.0
 
Date/Time
EST
Temp
°C
App
Temp
°C
Dew
Point
Rel
Hum
%
Delta-T
°C
Wind Press
QNH
hPa
Press
MSL
hPa
Rain
since 9 am
mm
Dir
 
Spd
km/h
Gust
km/h
Spd
kts
Gust
kts
27/11:30pm 5.5 0.5 1.4 75 1.7 WNW 17 24 9 13 1007.7 1007.5 0.0
27/11:00pm 5.6 1.0 1.3 74 1.8 W 15 22 8 12 1007.7 1007.5 0.0
27/10:30pm 5.8 1.2 1.3 73 1.9 W 15 26 8 14 1007.5 1007.3 0.0
27/10:00pm 5.8 1.5 1.3 73 1.9 W 13 24 7 13 1007.5 1007.3 0.0
27/09:30pm 6.0 1.0 1.3 72 1.9 WNW 17 22 9 12 1007.7 1007.5 0.0
27/09:00pm 6.6 1.1 1.7 71 2.1 WNW 20 35 11 19 1007.4 1007.2 0.0
27/08:30pm 6.9 1.6 1.6 69 2.2 WNW 19 30 10 16 1007.1 1006.9 0.0
27/08:00pm 6.8 0.1 1.3 68 2.3 WNW 26 37 14 20 1006.6 1006.5 0.0
27/07:30pm 7.2 0.1 1.3 66 2.5 WNW 28 43 15 23 1006.3 1006.1 0.0
27/07:00pm 7.3 -0.6 1.2 65 2.6 WNW 32 41 17 22 1005.6 1005.4 0.0
27/06:30pm 7.5 0.0 1.1 64 2.7 W 30 37 16 20 1005.3 1005.1 0.0
27/06:00pm 7.7 0.2 0.9 62 2.9 W 30 44 16 24 1004.7 1004.5 0.0
27/05:30pm 8.1 0.5 0.6 59 3.1 W 30 43 16 23 1004.3 1004.1 0.0
27/05:02pm 8.5 0.5 0.5 57 3.3 W 32 54 17 29 1003.9 1003.7 0.0
27/05:00pm 8.4 0.4 0.4 57 3.3 W 32 44 17 24 1003.8 1003.6 0.0
27/04:30pm 9.2 0.3 0.6 55 3.6 W 37 59 20 32 1003.0 1002.8 0.0
27/04:00pm 9.1 -0.2 0.8 56 3.5 WNW 39 59 21 32 1002.7 1002.5 0.0
27/03:35pm 10.0 1.5 0.6 52 4.0 WNW 35 61 19 33 1002.1 1001.8 0.0
27/03:30pm 9.9 1.4 0.8 53 3.9 WNW 35 50 19 27 1002.3 1002.0 0.0
27/03:03pm 9.8 0.2 0.9 54 3.8 W 41 59 22 32 1001.9 1001.6 0.0
27/03:00pm 9.8 -0.2 0.9 54 3.8 W 43 59 23 32 1001.8 1001.5 0.0
27/02:30pm 10.2 1.0 1.3 54 3.8 W 39 61 21 33 1001.4 1001.2 0.0
27/02:00pm 10.9 1.6 0.9 50 4.3 WNW 39 57 21 31 1001.3 1001.1 0.0
27/01:31pm 10.7 1.5 1.3 52 4.1 WNW 39 59 21 32 1001.2 1001.0 0.0
27/01:30pm 10.6 1.0 0.9 51 4.2 WNW 41 59 22 32 1001.2 1001.0 0.0

Other Formats:

Comma delimited format used in spreadsheet applications
http://www.bom.gov.au/fwo/IDN60801/IDN60801.94943.axf

JavaScript Object Notation format (JSON) in row-major order
http://www.bom.gov.au/fwo/IDN60801/IDN60801.94943.json